Time;durP1;ratioP1;P1;durP2;ratioP2;P2;SDS_P1;SDS_P2;PMS_P1;PMS_P2;Temp;Humidity;BMP_temperature;BMP_pressure;BME280_temperature;BME280_humidity;BME280_pressure;Samples;Min_cycle;Max_cycle;Signal;HPM_P1;HPM_P2
2021/06/19 00:00:51;;;;;;;6.75;4.55;;;;;;;27.94;44.21;99453.53;5092031;28;20122;-85
2021/06/19 00:03:30;;;;;;;9.43;4.63;;;;;;;27.86;44.28;99448.34;5092187;28;20052;-84
2021/06/19 00:05:57;;;;;;;7.53;4.47;;;;;;;27.86;44.68;99467.25;5093154;28;20058;-84
2021/06/19 00:08:24;;;;;;;9.68;4.55;;;;;;;27.82;44.69;99460.59;5091890;28;20048;-86
2021/06/19 00:10:56;;;;;;;9.90;5.43;;;;;;;27.74;45.52;99467.06;5091869;28;20048;-86
2021/06/19 00:13:23;;;;;;;12.65;5.15;;;;;;;27.69;45.18;99473.09;5092081;28;20086;-86
2021/06/19 00:15:50;;;;;;;6.97;4.20;;;;;;;27.64;45.52;99466.63;5091384;28;20131;-86
2021/06/19 00:18:23;;;;;;;8.75;4.97;;;;;;;27.57;46.33;99466.59;5093130;28;20416;-86
2021/06/19 00:20:50;;;;;;;;;;;;;;;27.52;44.12;99469.94;5092397;28;20056;-86
2021/06/19 00:23:21;;;;;;;9.95;4.35;;;;;;;27.53;45.79;99476.16;5091626;28;19920;-86
2021/06/19 00:25:47;;;;;;;12.05;5.40;;;;;;;27.49;45.45;99473.03;5091593;28;20059;-86
2021/06/19 00:28:18;;;;;;;7.53;4.53;;;;;;;27.40;45.82;99472.41;5091883;28;20055;-86
2021/06/19 00:30:45;;;;;;;12.60;4.90;;;;;;;27.37;45.44;99470.13;5091562;28;20502;-86
2021/06/19 00:33:18;;;;;;;9.05;4.80;;;;;;;27.30;46.21;99469.28;5091491;28;20097;-86
2021/06/19 00:35:44;;;;;;;;;;;;;;;27.26;44.30;99474.25;5091801;28;20126;-86
2021/06/19 00:38:11;;;;;;;7.90;5.00;;;;;;;27.29;45.71;99473.03;5092680;28;19920;-86
2021/06/19 00:40:41;;;;;;;11.80;4.97;;;;;;;27.24;46.07;99479.03;5091531;28;20059;-86
2021/06/19 00:43:07;;;;;;;7.80;4.72;;;;;;;27.23;46.35;99480.06;5091403;28;20048;-86
2021/06/19 00:45:37;;;;;;;9.57;4.72;;;;;;;27.21;46.59;99484.00;5092542;28;20043;-86
2021/06/19 00:48:09;;;;;;;7.97;4.45;;;;;;;27.19;46.80;99479.66;5091488;28;20098;-86
2021/06/19 00:50:37;;;;;;;7.10;4.28;;;;;;;27.22;46.60;99482.97;5091847;28;20127;-85
2021/06/19 00:53:04;;;;;;;8.55;4.80;;;;;;;27.22;46.77;99483.81;5091681;28;20492;-86
2021/06/19 00:55:32;;;;;;;11.23;4.20;;;;;;;27.24;46.67;99483.63;5091097;28;20048;-85
2021/06/19 00:58:02;;;;;;;7.05;4.15;;;;;;;27.24;46.84;99481.72;5091439;28;20060;-85
2021/06/19 01:00:36;;;;;;;9.18;5.30;;;;;;;27.23;46.91;99466.56;5091355;28;20044;-85
2021/06/19 01:03:03;;;;;;;18.02;4.90;;;;;;;27.27;46.86;99483.19;5091248;28;20153;-85
2021/06/19 01:05:31;;;;;;;7.40;4.32;;;;;;;27.27;46.79;99472.38;5091263;28;20385;-85
2021/06/19 01:08:01;;;;;;;6.82;4.40;;;;;;;27.27;47.12;99481.31;5091929;28;20094;-85
2021/06/19 01:10:28;;;;;;;7.75;4.28;;;;;;;27.28;46.82;99472.19;5091953;28;20062;-85
2021/06/19 01:12:55;;;;;;;9.73;5.50;;;;;;;27.27;46.97;99473.22;5091453;28;20473;-85
2021/06/19 01:15:22;;;;;;;7.53;4.40;;;;;;;27.26;46.99;99466.16;5091085;28;20512;-83
2021/06/19 01:17:49;;;;;;;12.80;5.00;;;;;;;27.27;47.07;99475.06;5091183;28;20054;-83
2021/06/19 01:20:24;;;;;;;7.32;4.47;;;;;;;27.24;47.34;99470.09;5091167;28;20085;-82
2021/06/19 01:22:54;;;;;;;15.60;4.97;;;;;;;27.24;47.18;99465.50;5091119;28;20056;-83
2021/06/19 01:25:26;;;;;;;13.05;5.22;;;;;;;27.22;47.49;99477.56;5091000;28;20048;-83
2021/06/19 01:27:55;;;;;;;10.38;5.28;;;;;;;27.21;47.22;99468.63;5090731;28;20048;-82
2021/06/19 01:30:24;;;;;;;8.60;5.45;;;;;;;27.18;47.54;99477.97;5091402;28;20060;-83
2021/06/19 01:32:52;;;;;;;12.80;5.57;;;;;;;27.16;47.45;99477.34;5093173;28;20044;-83
2021/06/19 01:35:20;;;;;;;10.98;5.38;;;;;;;27.13;47.64;99475.06;5094602;28;20138;-83
2021/06/19 01:37:49;;;;;;;11.07;5.53;;;;;;;27.11;48.16;99481.69;5094972;28;20062;-83
2021/06/19 01:40:25;;;;;;;12.13;5.32;;;;;;;27.05;48.28;99486.03;5094719;28;20056;-83
2021/06/19 01:42:52;;;;;;;11.73;5.38;;;;;;;27.05;47.98;99491.44;5094218;28;20044;-83
2021/06/19 01:45:26;;;;;;;11.10;6.00;;;;;;;27.02;48.65;99486.47;5094419;28;20051;-83
2021/06/19 01:47:53;;;;;;;7.55;4.82;;;;;;;26.99;48.18;99492.25;5094659;28;20064;-82
2021/06/19 01:50:27;;;;;;;10.50;5.75;;;;;;;26.95;48.70;99488.28;5094635;28;20400;-83
2021/06/19 01:52:55;;;;;;;11.93;5.32;;;;;;;26.95;48.37;99494.53;5094277;28;20044;-83
2021/06/19 01:55:24;;;;;;;8.73;5.45;;;;;;;26.90;49.08;99503.22;5093735;28;20040;-83
2021/06/19 01:57:55;;;;;;;8.20;5.97;;;;;;;26.87;49.56;99505.50;5094040;28;20040;-83
2021/06/19 02:00:27;;;;;;;9.50;6.32;;;;;;;26.84;49.17;99509.44;5094294;28;20059;-83
2021/06/19 02:02:54;;;;;;;14.10;5.78;;;;;;;26.81;48.85;99496.31;5094169;28;20055;-83
2021/06/19 02:05:25;;;;;;;7.65;4.78;;;;;;;26.74;49.29;99496.28;5094033;28;20512;-83
2021/06/19 02:07:53;;;;;;;11.27;4.70;;;;;;;26.71;48.82;99493.13;5094487;28;20473;-83
2021/06/19 02:10:35;;;;;;;7.50;5.20;;;;;;;26.63;49.03;99503.09;5093827;28;20051;-83
2021/06/19 02:13:04;;;;;;;9.00;5.00;;;;;;;26.62;49.03;99496.03;5093895;28;20048;-83
2021/06/19 02:15:42;;;;;;;9.73;5.10;;;;;;;26.57;49.39;99486.84;5094086;28;20139;-83
2021/06/19 02:18:09;;;;;;;7.05;4.65;;;;;;;26.57;49.33;99495.78;5094591;28;20056;-83
2021/06/19 02:20:36;;;;;;;9.63;5.90;;;;;;;26.56;49.25;99498.66;5093972;28;20481;-83
2021/06/19 02:23:05;;;;;;;7.60;5.32;;;;;;;26.52;49.45;99495.53;5094870;28;20055;-83
2021/06/19 02:25:32;;;;;;;6.55;5.07;;;;;;;26.48;49.35;99500.50;5093724;28;20469;-86
2021/06/19 02:28:05;;;;;;;10.00;6.03;;;;;;;26.43;49.75;99502.97;5093740;28;20382;-83
2021/06/19 02:30:35;;;;;;;14.05;6.05;;;;;;;26.37;49.79;99501.91;5094044;28;20135;-86
2021/06/19 02:33:04;;;;;;;10.25;6.75;;;;;;;26.32;49.87;99495.44;5093426;28;20055;-83
2021/06/19 02:35:35;;;;;;;8.80;5.32;;;;;;;26.25;50.28;99501.59;5093534;28;20066;-83
2021/06/19 02:38:03;;;;;;;10.27;6.95;;;;;;;26.19;50.09;99512.31;5093185;28;20052;-83
2021/06/19 02:40:31;;;;;;;12.25;6.10;;;;;;;26.11;50.23;99506.06;5093423;28;20044;-83
2021/06/19 02:42:58;;;;;;;9.88;5.93;;;;;;;26.01;50.29;99501.00;5093009;28;20058;-83
2021/06/19 02:45:29;;;;;;;14.90;7.57;;;;;;;25.92;51.58;99506.72;5092468;28;20055;-83
2021/06/19 02:47:58;;;;;;;11.20;7.07;;;;;;;25.85;51.17;99518.28;5093163;28;20062;-83
2021/06/19 02:50:29;;;;;;;8.00;5.75;;;;;;;25.78;50.91;99513.88;5093140;28;20423;-83
2021/06/19 02:52:57;;;;;;;11.88;7.22;;;;;;;25.69;51.13;99510.47;5093529;28;20051;-83
2021/06/19 02:55:27;;;;;;;10.75;6.93;;;;;;;25.65;51.30;99522.66;5093116;28;20056;-83
2021/06/19 02:57:54;;;;;;;10.32;7.20;;;;;;;25.59;51.29;99519.72;5092989;28;20046;-83
2021/06/19 03:00:28;;;;;;;12.65;7.75;;;;;;;25.52;52.27;99515.25;5094215;28;20102;-83
2021/06/19 03:02:56;;;;;;;11.82;7.57;;;;;;;25.49;51.56;99521.88;5093220;28;20052;-83
2021/06/19 03:05:26;;;;;;;12.27;6.72;;;;;;;25.41;52.42;99519.28;5092421;28;20257;-83
2021/06/19 03:07:54;;;;;;;9.25;6.68;;;;;;;25.35;51.91;99523.59;5093061;28;20066;-83
2021/06/19 03:10:31;;;;;;;15.88;7.97;;;;;;;25.29;52.27;99525.16;5093113;28;20436;-82
2021/06/19 03:12:59;;;;;;;11.38;6.88;;;;;;;25.25;52.06;99523.88;5093178;28;20128;-83
2021/06/19 03:15:26;;;;;;;15.05;7.22;;;;;;;25.21;52.66;99536.91;5092529;28;20055;-83
2021/06/19 03:17:54;;;;;;;9.65;7.22;;;;;;;25.18;52.98;99525.66;5092974;28;20063;-83
2021/06/19 03:20:21;;;;;;;12.07;7.40;;;;;;;25.15;52.96;99540.34;5092326;28;20054;-85
2021/06/19 03:22:58;;;;;;;10.20;6.97;;;;;;;25.09;53.75;99536.53;5093067;28;20477;-85
2021/06/19 03:25:52;;;;;;;10.77;7.95;;;;;;;25.01;52.84;99525.91;5092756;28;20047;-85
2021/06/19 03:28:18;;;;;;;12.13;7.35;;;;;;;25.02;53.13;99538.31;5090785;28;20052;-84
2021/06/19 03:30:46;;;;;;;14.63;7.28;;;;;;;24.98;53.04;99539.72;5092377;28;20054;-84
2021/06/19 03:33:17;;;;;;;11.98;7.53;;;;;;;24.93;53.99;99542.16;5092228;28;20056;-84
2021/06/19 03:35:44;;;;;;;12.57;7.57;;;;;;;24.90;53.44;99540.66;5092613;28;20492;-84
2021/06/19 03:38:11;;;;;;;7.35;6.28;;;;;;;24.88;53.32;99541.84;5092242;28;20052;-84
2021/06/19 03:40:45;;;;;;;12.00;6.07;;;;;;;24.81;54.29;99534.50;5092593;28;20485;-84
2021/06/19 03:43:12;;;;;;;10.88;6.13;;;;;;;24.82;53.49;99541.56;5092182;28;20052;-84
2021/06/19 03:45:41;;;;;;;10.77;6.07;;;;;;;24.77;53.81;99535.06;5092076;28;20055;-84
2021/06/19 03:48:08;;;;;;;8.98;5.03;;;;;;;24.77;53.73;99543.13;5091780;28;20056;-84
2021/06/19 03:50:36;;;;;;;10.82;5.10;;;;;;;24.75;53.61;99546.03;5092356;28;20477;-84
2021/06/19 03:53:12;;;;;;;9.35;5.32;;;;;;;24.72;53.91;99549.09;5092063;28;20056;-84
2021/06/19 03:55:39;;;;;;;9.23;5.85;;;;;;;24.75;53.78;99548.72;5091894;28;20052;-84
2021/06/19 03:58:09;;;;;;;9.40;5.55;;;;;;;24.73;54.79;99556.97;5093074;28;20238;-84
2021/06/19 04:00:35;;;;;;;9.45;6.15;;;;;;;24.77;53.89;99561.97;5092256;28;20059;-84
2021/06/19 04:03:04;;;;;;;8.13;5.80;;;;;;;24.78;54.51;99563.66;5091966;28;20055;-84
2021/06/19 04:05:32;;;;;;;10.15;6.57;;;;;;;24.76;54.30;99566.53;5091713;28;20048;-84
2021/06/19 04:07:58;;;;;;;9.30;6.43;;;;;;;24.78;54.65;99558.28;5091854;28;20052;-84
2021/06/19 04:10:26;;;;;;;9.75;6.38;;;;;;;24.78;54.70;99567.16;5092046;28;20488;-84
2021/06/19 04:12:53;;;;;;;10.30;6.05;;;;;;;24.80;54.42;99572.38;5091811;28;20070;-84
2021/06/19 04:15:23;;;;;;;7.68;6.05;;;;;;;24.80;55.49;99575.91;5091500;28;20056;-84
2021/06/19 04:17:51;;;;;;;8.82;5.38;;;;;;;24.83;54.36;99583.63;5092889;28;20139;-86
2021/06/19 04:20:18;;;;;;;10.27;5.38;;;;;;;24.86;54.71;99579.75;5091752;28;20058;-86
2021/06/19 04:22:51;;;;;;;9.38;4.78;;;;;;;24.86;54.78;99582.44;5092067;28;20480;-86
2021/06/19 04:25:18;;;;;;;7.70;4.55;;;;;;;24.91;54.30;99590.78;5091733;28;20420;-86
2021/06/19 04:27:51;;;;;;;9.63;4.50;;;;;;;24.93;54.21;99590.63;5092103;28;20052;-86
2021/06/19 04:30:21;;;;;;;8.32;4.88;;;;;;;24.95;54.17;99599.31;5036626;28;20042;-86
2021/06/19 04:32:49;;;;;;;4.75;3.70;;;;;;;24.98;54.08;99594.38;5014366;28;20057;-86
2021/06/19 04:35:18;;;;;;;6.13;3.60;;;;;;;25.00;53.81;99591.53;5013944;28;20053;-86
2021/06/19 04:37:46;;;;;;;6.32;3.35;;;;;;;25.05;53.57;99599.06;5014086;28;20045;-86
2021/06/19 04:42:55;;;;;;;4.68;3.55;;;;;;;25.07;53.74;99597.84;5014385;28;20057;-86
2021/06/19 04:45:39;;;;;;;5.05;3.20;;;;;;;25.11;53.35;99598.28;5025885;28;20584;-84
2021/06/19 04:48:07;;;;;;;4.20;2.95;;;;;;;25.12;53.48;99602.69;5019131;28;20412;-84
2021/06/19 04:50:49;;;;;;;5.28;3.30;;;;;;;25.07;53.34;99607.75;5071254;28;20052;-85
2021/06/19 04:53:16;;;;;;;6.18;3.30;;;;;;;25.11;53.32;99614.44;5071659;28;20048;-85
2021/06/19 04:55:43;;;;;;;6.53;3.10;;;;;;;25.11;53.23;99615.28;5072063;28;20572;-85
2021/06/19 04:58:24;;;;;;;4.68;2.80;;;;;;;25.07;53.60;99616.69;5083076;28;20052;-85
2021/06/19 05:00:58;;;;;;;4.20;3.17;;;;;;;25.10;53.42;99618.16;5092097;28;20054;-86
2021/06/19 05:03:25;;;;;;;3.80;3.13;;;;;;;25.13;53.12;99615.13;5093007;28;20139;-86
2021/06/19 05:05:57;;;;;;;3.85;3.35;;;;;;;25.12;53.50;99616.16;5092109;28;20135;-86
2021/06/19 05:08:24;;;;;;;4.82;3.40;;;;;;;25.13;53.18;99625.03;5094371;28;20071;-85
2021/06/19 05:10:57;;;;;;;6.82;3.60;;;;;;;25.09;53.99;99617.31;5095566;28;20052;-85
2021/06/19 05:13:25;;;;;;;7.40;3.72;;;;;;;25.11;53.63;99614.44;5074983;28;20151;-86
2021/06/19 05:16:04;;;;;;;7.75;3.38;;;;;;;25.06;53.79;99619.56;5074548;28;20059;-86
2021/06/19 05:18:31;;;;;;;5.50;3.83;;;;;;;25.10;53.98;99615.47;5074743;28;20057;-86
2021/06/19 05:20:58;;;;;;;5.72;3.75;;;;;;;25.09;53.70;99617.31;5074697;28;20059;-84
2021/06/19 05:23:24;;;;;;;6.80;3.33;;;;;;;25.09;53.64;99624.59;5075884;28;20059;-84
2021/06/19 05:25:51;;;;;;;4.80;3.20;;;;;;;25.09;54.00;99621.88;5094490;28;20044;-84
2021/06/19 05:28:22;;;;;;;4.40;3.15;;;;;;;25.06;54.01;99628.50;5094888;28;20048;-84
2021/06/19 05:30:50;;;;;;;4.85;3.10;;;;;;;25.07;53.77;99635.53;5094932;28;20058;-85
2021/06/19 05:33:18;;;;;;;3.90;2.83;;;;;;;25.08;53.87;99633.69;5094975;28;20138;-84
2021/06/19 05:35:45;;;;;;;3.10;2.80;;;;;;;25.07;54.00;99622.06;5094537;28;20262;-85
2021/06/19 05:38:12;;;;;;;4.82;2.85;;;;;;;25.09;53.88;99621.88;5094660;28;20054;-85
2021/06/19 05:40:39;;;;;;;3.97;2.88;;;;;;;25.07;54.02;99619.38;5094431;28;20052;-85
2021/06/19 05:43:09;;;;;;;3.47;2.80;;;;;;;25.08;53.81;99631.81;5094334;28;20109;-85
2021/06/19 05:45:35;;;;;;;6.10;2.70;;;;;;;25.07;53.96;99632.84;5094676;28;20405;-85
2021/06/19 05:48:06;;;;;;;6.43;2.58;;;;;;;25.06;54.04;99631.19;5094849;28;20520;-85
2021/06/19 05:50:33;;;;;;;3.83;2.70;;;;;;;25.10;54.01;99640.56;5094689;28;20054;-85
2021/06/19 05:52:59;;;;;;;4.78;2.65;;;;;;;25.11;54.08;99644.91;5094721;28;20143;-85
2021/06/19 05:55:28;;;;;;;5.35;2.65;;;;;;;25.15;54.08;99647.25;5093907;28;20060;-85
2021/06/19 05:57:55;;;;;;;4.45;2.40;;;;;;;25.19;53.77;99648.56;5094241;28;20056;-85
2021/06/19 06:00:22;;;;;;;3.58;2.50;;;;;;;25.21;53.67;99651.88;5094219;28;20052;-85
2021/06/19 06:02:54;;;;;;;3.95;2.67;;;;;;;25.23;54.36;99645.28;5094273;28;20054;-85
2021/06/19 06:05:21;;;;;;;4.43;2.53;;;;;;;25.32;53.79;99648.72;5094266;28;20068;-83
2021/06/19 06:07:47;;;;;;;3.78;2.58;;;;;;;25.37;54.06;99651.69;5093745;28;20055;-84
2021/06/19 06:10:16;;;;;;;5.10;2.88;;;;;;;25.44;53.17;99656.31;5094296;28;20059;-83
2021/06/19 06:12:43;;;;;;;3.60;2.55;;;;;;;25.49;53.34;99662.00;5094221;28;20106;-83
2021/06/19 06:15:13;;;;;;;2.63;2.42;;;;;;;25.52;53.44;99660.78;5093890;28;20048;-83
2021/06/19 06:17:40;;;;;;;4.70;2.80;;;;;;;25.56;53.37;99656.69;5093749;28;20048;-83
2021/06/19 06:20:08;;;;;;;5.80;2.42;;;;;;;25.60;52.97;99660.72;5095164;28;20056;-83
2021/06/19 06:22:36;;;;;;;3.03;2.45;;;;;;;25.61;52.98;99679.34;5093752;28;20525;-83
2021/06/19 06:25:04;;;;;;;4.03;2.42;;;;;;;25.64;52.92;99683.53;5093655;28;20048;-84
2021/06/19 06:27:30;;;;;;;3.30;2.42;;;;;;;25.66;53.30;99677.97;5093705;28;20060;-83
2021/06/19 06:30:00;;;;;;;3.72;2.38;;;;;;;25.68;53.47;99681.31;5093631;28;20055;-84
2021/06/19 06:32:29;;;;;;;3.00;2.25;;;;;;;25.73;53.23;99679.72;5093860;28;20385;-83
2021/06/19 06:35:00;;;;;;;3.78;2.40;;;;;;;25.78;53.25;99684.53;5093723;28;20485;-84
2021/06/19 06:37:27;;;;;;;5.40;2.33;;;;;;;25.85;52.61;99690.84;5093647;28;20052;-84
2021/06/19 06:40:12;;;;;;;2.90;2.20;;;;;;;25.86;52.78;99695.22;5093559;28;20066;-84
2021/06/19 06:42:41;;;;;;;2.67;1.95;;;;;;;25.96;52.69;99699.47;5076730;28;20056;-84
2021/06/19 06:45:14;;;;;;;4.30;2.30;;;;;;;25.99;52.21;99697.25;5093470;28;20048;-84
2021/06/19 06:47:47;;;;;;;4.20;2.10;;;;;;;26.01;51.80;99697.03;5093366;28;20048;-84
2021/06/19 06:50:14;;;;;;;4.10;2.42;;;;;;;25.99;51.94;99713.41;5092796;28;20056;-83
2021/06/19 06:52:42;;;;;;;3.13;2.42;;;;;;;25.97;51.77;99709.22;5093405;28;20536;-84
2021/06/19 06:55:10;;;;;;;2.50;1.92;;;;;;;25.93;51.63;99706.06;5092494;28;20082;-84
2021/06/19 06:57:37;;;;;;;3.72;2.35;;;;;;;25.91;51.93;99705.44;5093380;28;20468;-84
2021/06/19 07:00:06;;;;;;;4.05;2.30;;;;;;;25.87;52.11;99714.94;5093382;28;20058;-84
2021/06/19 07:02:41;;;;;;;3.42;2.50;;;;;;;25.84;51.95;99710.75;5076224;28;20040;-84
2021/06/19 07:05:09;;;;;;;5.38;2.60;;;;;;;25.88;52.29;99703.97;5092524;28;20058;-85
2021/06/19 07:07:37;;;;;;;4.90;2.85;;;;;;;25.93;52.31;99705.25;5092908;28;20054;-84
2021/06/19 07:10:06;;;;;;;5.75;2.28;;;;;;;25.96;51.97;99705.69;5093134;28;20514;-84
2021/06/19 07:12:33;;;;;;;3.63;2.38;;;;;;;25.99;51.21;99705.31;5092719;28;20052;-84
2021/06/19 07:15:04;;;;;;;2.53;2.10;;;;;;;25.99;51.77;99712.56;5092723;28;20378;-83
2021/06/19 07:17:30;;;;;;;3.33;2.53;;;;;;;26.01;51.93;99715.91;5092934;28;20055;-83
2021/06/19 07:20:01;;;;;;;2.15;1.95;;;;;;;26.03;51.80;99713.88;5093871;28;20052;-83
2021/06/19 07:22:28;;;;;;;5.07;2.25;;;;;;;26.06;51.89;99721.59;5092252;28;20052;-84
2021/06/19 07:24:54;;;;;;;2.85;1.88;;;;;;;26.13;51.48;99730.56;5093952;28;20052;-84
2021/06/19 07:27:21;;;;;;;3.85;1.75;;;;;;;26.18;51.59;99710.28;5092607;28;20044;-85
2021/06/19 07:29:48;;;;;;;2.40;2.20;;;;;;;26.24;50.93;99715.72;5091908;28;20067;-85
2021/06/19 07:32:15;;;;;;;3.42;1.88;;;;;;;26.29;50.99;99704.41;5092426;28;20052;-85
2021/06/19 07:34:42;;;;;;;1.77;1.67;;;;;;;26.35;50.94;99709.03;5092296;28;20052;-85
2021/06/19 07:37:08;;;;;;;3.55;1.83;;;;;;;26.39;50.56;99715.72;5092271;28;20063;-85
2021/06/19 07:39:36;;;;;;;1.90;1.70;;;;;;;26.43;50.07;99709.94;5092705;28;20052;-86
2021/06/19 07:42:03;;;;;;;2.25;1.85;;;;;;;26.44;49.57;99709.75;5092613;28;20135;-85
2021/06/19 07:44:31;;;;;;;3.38;1.80;;;;;;;26.47;49.96;99719.31;5092343;28;20477;-85
2021/06/19 07:47:02;;;;;;;3.00;2.10;;;;;;;26.45;50.13;99722.19;5091969;28;20067;-85
2021/06/19 07:49:29;;;;;;;5.07;2.00;;;;;;;26.46;50.04;99725.75;5092501;28;20051;-85
2021/06/19 07:51:57;;;;;;;2.13;1.48;;;;;;;26.44;50.44;99720.53;5092144;28;20059;-85
2021/06/19 07:54:24;;;;;;;2.00;1.77;;;;;;;26.46;50.35;99714.94;5091665;28;20052;-85
2021/06/19 07:56:51;;;;;;;3.50;2.30;;;;;;;26.47;50.42;99716.63;5092445;28;20058;-85
2021/06/19 07:59:17;;;;;;;1.92;1.83;;;;;;;26.52;50.37;99724.97;5092102;28;20056;-85
2021/06/19 08:01:44;;;;;;;1.77;1.67;;;;;;;26.56;50.43;99726.25;5092135;28;20051;-85
2021/06/19 08:04:13;;;;;;;1.90;1.70;;;;;;;26.61;50.23;99720.28;5091940;28;20507;-85
2021/06/19 08:06:40;;;;;;;1.73;1.63;;;;;;;26.66;50.17;99717.81;5091968;28;20052;-85
2021/06/19 08:09:06;;;;;;;2.97;1.88;;;;;;;26.70;50.47;99716.41;5092264;28;20052;-85
2021/06/19 08:11:41;;;;;;;2.58;1.85;;;;;;;26.70;50.03;99712.84;5091926;28;20070;-85
2021/06/19 08:14:08;;;;;;;2.08;1.50;;;;;;;26.77;50.08;99713.75;5091592;28;20135;-85
2021/06/19 08:16:36;;;;;;;2.80;1.73;;;;;;;26.78;49.98;99710.03;5091891;28;20324;-85
2021/06/19 08:19:03;;;;;;;1.92;1.55;;;;;;;26.81;49.88;99709.63;5092205;28;20095;-85
2021/06/19 08:21:29;;;;;;;3.17;1.70;;;;;;;26.86;49.50;99715.28;5092051;28;20148;-83
2021/06/19 08:24:04;;;;;;;2.97;1.83;;;;;;;26.86;49.68;99717.97;5092987;28;20048;-84
2021/06/19 08:26:31;;;;;;;4.07;1.77;;;;;;;26.93;49.47;99715.31;5091152;28;20089;-84
2021/06/19 08:29:00;;;;;;;2.28;1.42;;;;;;;26.97;49.26;99729.28;5091745;28;20062;-84
2021/06/19 08:31:35;;;;;;;2.17;1.20;;;;;;;26.99;49.59;99725.38;5091720;28;20135;-86
2021/06/19 08:34:03;;;;;;;2.30;1.52;;;;;;;27.10;49.52;99734.78;5091994;28;20109;-86
2021/06/19 08:36:31;;;;;;;1.55;1.40;;;;;;;27.16;49.31;99725.06;5092576;28;20051;-86
2021/06/19 08:39:01;;;;;;;2.35;1.20;;;;;;;27.20;48.48;99729.03;5092168;28;20048;-86
2021/06/19 08:41:28;;;;;;;2.92;1.33;;;;;;;27.27;48.38;99740.75;5092065;28;20062;-87
2021/06/19 08:43:55;;;;;;;2.00;1.55;;;;;;;27.33;48.03;99739.13;5097474;28;20059;-86
2021/06/19 08:46:26;;;;;;;1.77;1.67;;;;;;;27.36;47.88;99732.47;5096233;28;20048;-86
2021/06/19 08:48:54;;;;;;;2.13;1.60;;;;;;;27.41;47.56;99725.44;5096296;28;20143;-86
2021/06/19 08:51:23;;;;;;;1.48;1.38;;;;;;;27.44;47.60;99727.72;5096556;28;20825;-87
2021/06/19 08:53:51;;;;;;;3.22;1.25;;;;;;;27.48;48.64;99724.63;5096022;28;20048;-86
2021/06/19 08:56:18;;;;;;;2.13;1.23;;;;;;;27.51;48.04;99727.75;5096242;28;20054;-86
2021/06/19 08:58:45;;;;;;;2.67;1.50;;;;;;;27.55;48.62;99723.63;5096031;28;20060;-85
2021/06/19 09:01:22;;;;;;;1.92;1.52;;;;;;;27.56;46.07;99721.75;5096064;28;20130;-85
2021/06/19 09:03:53;;;;;;;3.30;1.48;;;;;;;27.63;46.83;99717.25;5095694;28;20059;-86
2021/06/19 09:06:26;;;;;;;1.60;1.50;;;;;;;27.68;47.89;99716.63;5095831;28;20055;-86
2021/06/19 09:09:06;;;;;;;3.85;1.88;;;;;;;27.73;46.87;99722.28;5095926;28;20052;-86
2021/06/19 09:11:53;;;;;;;4.75;1.92;;;;;;;27.80;46.84;99701.50;5038839;28;20049;-85
2021/06/19 09:14:26;;;;;;;1.30;1.20;;;;;;;27.91;47.79;99713.59;5054479;28;20056;-85
2021/06/19 09:16:58;;;;;;;2.90;1.80;;;;;;;27.96;46.49;99713.81;5054525;28;20053;-84
2021/06/19 09:19:27;;;;;;;1.85;1.65;;;;;;;28.05;46.04;99702.81;5038094;28;20468;-84
2021/06/19 09:22:14;;;;;;;2.65;1.83;;;;;;;28.07;46.04;99700.75;5037915;28;20460;-84
2021/06/19 09:24:53;;;;;;;2.28;1.77;;;;;;;28.18;45.74;99691.22;5037713;28;20057;-84
2021/06/19 09:27:43;;;;;;;1.83;1.73;;;;;;;28.23;46.46;99696.84;5037617;28;20119;-84
2021/06/19 09:30:20;;;;;;;2.67;2.08;;;;;;;28.31;45.27;99695.81;5082656;28;20078;-84
2021/06/19 09:32:57;;;;;;;3.42;1.90;;;;;;;28.34;45.00;99692.72;5095525;28;20063;-85
2021/06/19 09:35:27;;;;;;;2.38;1.83;;;;;;;28.38;45.33;99696.69;5095298;28;20048;-84
2021/06/19 09:38:03;;;;;;;3.17;1.45;;;;;;;28.43;44.90;99696.88;5095608;28;20056;-86
2021/06/19 09:40:32;;;;;;;3.13;1.83;;;;;;;28.47;44.87;99706.25;5095288;28;20134;-86
2021/06/19 09:43:08;;;;;;;3.10;1.52;;;;;;;28.46;44.80;99701.88;5094955;28;20127;-86
2021/06/19 09:45:40;;;;;;;1.65;1.55;;;;;;;28.50;45.19;99699.59;5095199;28;20055;-86
2021/06/19 09:48:26;;;;;;;2.88;1.50;;;;;;;28.52;45.00;99705.63;5095252;28;20044;-86
2021/06/19 09:51:15;;;;;;;2.40;1.38;;;;;;;28.60;45.30;99708.13;5094882;28;20048;-86
2021/06/19 09:53:45;;;;;;;1.30;1.20;;;;;;;28.72;45.34;99702.09;5094582;28;20063;-86
2021/06/19 09:56:13;;;;;;;1.75;1.50;;;;;;;28.83;44.24;99695.22;5095091;28;20047;-86
2021/06/19 09:58:42;;;;;;;1.13;1.02;;;;;;;28.91;45.41;99708.56;5095166;28;20502;-87
2021/06/19 10:01:11;;;;;;;2.20;1.42;;;;;;;29.00;44.71;99698.34;5094899;28;20058;-86
2021/06/19 10:04:06;;;;;;;1.73;1.20;;;;;;;29.05;45.65;99705.84;5094713;28;20052;-85
2021/06/19 10:06:36;;;;;;;1.73;1.08;;;;;;;29.20;43.95;99698.31;5093779;28;20054;-86
2021/06/19 10:09:03;;;;;;;1.58;1.15;;;;;;;29.28;44.20;99699.94;5094629;28;20058;-85
2021/06/19 10:11:30;;;;;;;1.52;1.30;;;;;;;29.37;43.89;99695.97;5094803;28;20058;-86
2021/06/19 10:13:59;;;;;;;2.28;1.30;;;;;;;29.45;43.64;99694.06;5094345;28;20047;-86
2021/06/19 10:16:28;;;;;;;2.10;1.20;;;;;;;29.51;43.16;99699.50;5094369;28;20052;-86
2021/06/19 10:18:57;;;;;;;1.55;1.23;;;;;;;29.58;42.80;99710.31;5094521;28;20060;-83
2021/06/19 10:21:26;;;;;;;1.30;1.20;;;;;;;29.63;42.71;99707.78;5094791;28;20408;-83
2021/06/19 10:23:53;;;;;;;1.40;1.30;;;;;;;29.68;42.44;99709.88;5094471;28;20055;-84
2021/06/19 10:26:23;;;;;;;1.48;1.20;;;;;;;29.73;43.05;99703.78;5094434;28;20131;-84
2021/06/19 10:28:56;;;;;;;0.90;0.90;;;;;;;29.79;43.20;99702.94;5094451;28;20075;-83
2021/06/19 10:31:24;;;;;;;1.60;1.23;;;;;;;29.87;42.41;99697.22;5094466;28;20052;-83
2021/06/19 10:33:52;;;;;;;1.45;0.90;;;;;;;29.98;43.59;99698.41;5094088;28;20052;-83
2021/06/19 10:36:19;;;;;;;2.25;1.00;;;;;;;30.11;43.16;99693.97;5094204;28;20050;-83
2021/06/19 10:38:49;;;;;;;1.13;0.88;;;;;;;30.26;43.12;99691.81;5094515;28;20043;-83
2021/06/19 10:41:21;;;;;;;1.25;0.98;;;;;;;30.46;43.64;99684.56;5094270;28;20059;-83
2021/06/19 10:43:50;;;;;;;1.25;1.10;;;;;;;30.69;42.41;99686.69;5093944;28;20131;-83
2021/06/19 10:46:37;;;;;;;2.08;1.20;;;;;;;30.95;41.23;99685.59;5093948;28;20054;-83
2021/06/19 10:49:25;;;;;;;2.10;1.20;;;;;;;31.32;42.35;99679.38;5094197;28;20052;-83
2021/06/19 10:52:29;;;;;;;1.30;1.10;;;;;;;31.75;41.63;99671.31;5093477;28;20127;-83
2021/06/19 10:55:07;;;;;;;1.25;0.90;;;;;;;32.29;40.05;99658.84;5094148;28;20060;-84
2021/06/19 10:57:51;;;;;;;1.35;1.10;;;;;;;32.79;39.09;99664.94;5093948;28;20056;-84
2021/06/19 11:00:42;;;;;;;1.08;0.65;;;;;;;33.33;38.80;99644.84;5094072;28;20046;-84
2021/06/19 11:03:09;;;;;;;5.00;1.10;;;;;;;33.80;37.81;99649.31;5036202;28;20049;-84
2021/06/19 11:05:42;;;;;;;0.75;0.63;;;;;;;34.23;37.04;99652.53;5051172;28;20131;-85
2021/06/19 11:08:16;;;;;;;1.23;0.70;;;;;;;34.64;34.48;99652.38;5036092;28;20122;-84
2021/06/19 11:13:28;;;;;;;0.95;0.50;;;;;;;35.35;35.58;99664.53;5052355;28;20148;-87
2021/06/19 11:16:00;;;;;;;1.77;0.70;;;;;;;35.70;34.05;99662.50;5035583;28;20055;-87
2021/06/19 11:18:55;;;;;;;3.10;0.90;;;;;;;35.95;34.03;99652.88;5052364;28;20082;-87
2021/06/19 11:21:30;;;;;;;2.78;0.77;;;;;;;36.26;32.80;99649.59;5073214;28;20786;-87
2021/06/19 11:24:04;;;;;;;0.70;0.60;;;;;;;36.53;32.52;99650.59;5093032;28;20047;-87
2021/06/19 11:29:40;;;;;;;0.93;0.50;;;;;;;36.98;31.86;99645.69;5050910;28;20045;-87
2021/06/19 11:32:27;;;;;;;1.30;0.52;;;;;;;37.15;32.46;99637.28;5034573;28;20048;-87
2021/06/19 11:35:00;;;;;;;2.10;0.80;;;;;;;37.36;32.21;99637.34;5034494;28;20052;-87
2021/06/19 11:37:59;;;;;;;0.90;0.50;;;;;;;37.49;31.87;99636.00;4994749;28;21600;-87
2021/06/19 11:40:30;;;;;;;0.65;0.50;;;;;;;37.76;30.42;99633.06;4995216;28;20054;-87
2021/06/19 11:42:58;;;;;;;1.83;0.63;;;;;;;37.99;29.93;99633.63;4995116;28;20058;-87
2021/06/19 11:45:25;;;;;;;0.88;0.45;;;;;;;38.17;30.11;99631.47;4994774;28;20049;-85
2021/06/19 11:48:09;;;;;;;3.75;0.85;;;;;;;38.27;31.07;99634.19;5019883;28;20160;-85
2021/06/19 11:50:41;;;;;;;0.73;0.73;;;;;;;38.48;29.12;99633.34;5034601;28;20722;-84
2021/06/19 11:53:23;;;;;;;0.80;0.50;;;;;;;38.61;29.64;99637.47;5034564;28;20052;-84
2021/06/19 11:56:13;;;;;;;0.93;0.50;;;;;;;38.81;29.45;99636.59;5033879;28;20167;-85